createdAt,value
2022-08-28T00:02:02.161Z,100.00
2022-08-28T00:04:29.502Z,100.00
2022-08-28T00:06:56.521Z,100.00
2022-08-28T00:09:23.953Z,100.00
2022-08-28T00:11:51.037Z,100.00
2022-08-28T00:14:21.570Z,100.00
2022-08-28T00:16:50.503Z,100.00
2022-08-28T00:19:23.956Z,100.00
2022-08-28T00:21:52.353Z,100.00
2022-08-28T00:24:19.681Z,100.00
2022-08-28T00:27:05.785Z,100.00
2022-08-28T00:29:33.068Z,100.00
2022-08-28T00:32:00.403Z,100.00
2022-08-28T00:34:33.118Z,100.00
2022-08-28T00:37:01.983Z,100.00
2022-08-28T00:39:29.147Z,100.00
2022-08-28T00:41:57.964Z,100.00
2022-08-28T00:44:27.810Z,100.00
2022-08-28T00:46:57.819Z,100.00
2022-08-28T00:49:31.836Z,100.00
2022-08-28T00:52:16.088Z,100.00
2022-08-28T00:54:59.691Z,100.00
2022-08-28T00:57:42.263Z,100.00
2022-08-28T01:00:16.492Z,100.00
2022-08-28T01:02:44.055Z,100.00
2022-08-28T01:05:11.807Z,100.00
2022-08-28T01:07:39.584Z,100.00
2022-08-28T01:10:15.081Z,100.00
2022-08-28T01:12:44.029Z,100.00
2022-08-28T01:15:16.589Z,100.00
2022-08-28T01:17:51.549Z,100.00
2022-08-28T01:20:25.612Z,100.00
2022-08-28T01:23:16.204Z,100.00
2022-08-28T01:25:43.864Z,100.00
2022-08-28T01:28:14.362Z,100.00
2022-08-28T01:30:47.673Z,100.00
2022-08-28T01:33:15.868Z,100.00
2022-08-28T01:35:50.153Z,100.00
2022-08-28T01:38:20.189Z,100.00
2022-08-28T01:40:54.256Z,100.00
2022-08-28T01:43:26.261Z,100.00
2022-08-28T01:46:04.355Z,100.00
2022-08-28T01:48:36.340Z,100.00
2022-08-28T01:51:05.948Z,100.00
2022-08-28T01:53:33.733Z,100.00
2022-08-28T01:56:08.077Z,100.00
2022-08-28T01:58:38.246Z,100.00
2022-08-28T02:01:15.408Z,100.00
2022-08-28T02:03:43.448Z,100.00
2022-08-28T02:06:12.108Z,100.00
2022-08-28T02:08:39.519Z,100.00
2022-08-28T02:11:08.884Z,100.00
2022-08-28T02:13:37.727Z,100.00
2022-08-28T02:16:08.834Z,100.00
2022-08-28T02:18:37.878Z,100.00
2022-08-28T02:21:07.540Z,100.00
2022-08-28T02:23:36.150Z,100.00
2022-08-28T02:26:03.264Z,100.00
2022-08-28T02:28:30.960Z,100.00
2022-08-28T02:30:58.043Z,100.00
2022-08-28T02:33:25.504Z,100.00
2022-08-28T02:35:53.476Z,100.00
2022-08-28T02:38:22.544Z,100.00
2022-08-28T02:40:49.552Z,100.00
2022-08-28T02:43:16.577Z,100.00
2022-08-28T02:45:45.898Z,100.00
2022-08-28T02:48:17.232Z,100.00
2022-08-28T02:50:46.157Z,100.00
2022-08-28T02:53:13.296Z,100.00
2022-08-28T02:55:40.333Z,100.00
2022-08-28T02:58:09.534Z,100.00
2022-08-28T03:00:36.713Z,100.00
2022-08-28T03:03:03.873Z,100.00
2022-08-28T03:05:30.952Z,100.00
2022-08-28T03:07:58.124Z,100.00
2022-08-28T03:10:25.112Z,100.00
2022-08-28T03:12:53.035Z,100.00
2022-08-28T03:15:20.245Z,100.00
2022-08-28T03:17:47.983Z,100.00
2022-08-28T03:20:16.494Z,100.00
2022-08-28T03:23:02.362Z,100.00
2022-08-28T03:25:30.062Z,100.00
2022-08-28T03:27:57.601Z,100.00
2022-08-28T03:30:24.842Z,100.00
2022-08-28T03:32:52.532Z,100.00
2022-08-28T03:35:20.479Z,100.00
2022-08-28T03:37:47.617Z,100.00
2022-08-28T03:40:15.849Z,100.00
2022-08-28T03:42:43.102Z,100.00
2022-08-28T03:45:21.795Z,100.00
2022-08-28T03:47:49.923Z,100.00
2022-08-28T03:50:18.689Z,100.00
2022-08-28T03:52:47.442Z,100.00
2022-08-28T03:55:14.609Z,100.00
2022-08-28T03:57:41.615Z,100.00
2022-08-28T04:00:13.266Z,100.00
2022-08-28T04:02:43.012Z,100.00
2022-08-28T04:05:12.937Z,100.00
2022-08-28T04:07:40.431Z,100.00
2022-08-28T04:10:08.501Z,100.00
2022-08-28T04:12:36.898Z,100.00
2022-08-28T04:15:07.147Z,100.00
2022-08-28T04:17:36.782Z,100.00
2022-08-28T04:20:04.684Z,100.00
2022-08-28T04:22:32.039Z,100.00
2022-08-28T04:24:59.773Z,100.00
2022-08-28T04:27:26.877Z,100.00
2022-08-28T04:29:53.868Z,100.00
2022-08-28T04:32:21.844Z,100.00
2022-08-28T04:34:49.493Z,100.00
2022-08-28T04:37:17.778Z,100.00
2022-08-28T04:39:44.861Z,100.00
2022-08-28T04:42:11.911Z,100.00
2022-08-28T04:44:38.941Z,100.00
2022-08-28T04:47:06.264Z,100.00
2022-08-28T04:49:33.592Z,100.00
2022-08-28T04:52:00.988Z,100.00
2022-08-28T04:54:28.618Z,100.00
2022-08-28T04:56:55.777Z,100.00
2022-08-28T04:59:23.965Z,100.00
2022-08-28T05:01:51.901Z,100.00
2022-08-28T05:04:19.749Z,100.00
2022-08-28T05:06:47.663Z,100.00
2022-08-28T05:09:18.463Z,100.00
2022-08-28T05:11:47.137Z,100.00
2022-08-28T05:14:16.256Z,100.00
2022-08-28T05:16:52.108Z,100.00
2022-08-28T05:19:21.261Z,100.00
2022-08-28T05:21:48.474Z,100.00
2022-08-28T05:24:15.716Z,100.00
2022-08-28T05:26:43.251Z,100.00
2022-08-28T05:29:12.114Z,100.00
2022-08-28T05:31:41.497Z,100.00
2022-08-28T05:34:10.380Z,100.00
2022-08-28T05:36:39.567Z,100.00
2022-08-28T05:39:10.558Z,100.00
2022-08-28T05:41:42.301Z,100.00
2022-08-28T05:44:13.551Z,100.00
2022-08-28T05:46:43.946Z,100.00
2022-08-28T05:49:13.480Z,100.00
2022-08-28T05:51:42.661Z,100.00
2022-08-28T05:54:10.594Z,100.00
2022-08-28T05:56:41.020Z,100.00
2022-08-28T05:59:09.608Z,100.00
2022-08-28T06:01:41.672Z,100.00
2022-08-28T06:04:14.571Z,100.00
2022-08-28T06:06:42.719Z,100.00
2022-08-28T06:09:30.107Z,100.00
2022-08-28T06:12:02.756Z,100.00
2022-08-28T06:14:32.443Z,100.00
2022-08-28T06:17:01.907Z,100.00
2022-08-28T06:19:32.219Z,100.00
2022-08-28T06:22:04.430Z,100.00
2022-08-28T06:24:35.141Z,100.00
2022-08-28T06:27:02.671Z,100.00
2022-08-28T06:29:30.450Z,100.00
2022-08-28T06:32:01.753Z,100.00
2022-08-28T06:34:29.946Z,100.00
2022-08-28T06:36:57.113Z,100.00
2022-08-28T06:39:24.618Z,100.00
2022-08-28T06:41:52.333Z,100.00
2022-08-28T06:44:21.479Z,100.00
2022-08-28T06:46:52.223Z,100.00
2022-08-28T06:49:19.343Z,100.00
2022-08-28T06:51:46.688Z,100.00
2022-08-28T06:54:21.810Z,100.00
2022-08-28T06:56:50.153Z,100.00
2022-08-28T06:59:17.192Z,100.00
2022-08-28T07:01:44.290Z,100.00
2022-08-28T07:04:14.593Z,100.00
2022-08-28T07:06:46.749Z,100.00
2022-08-28T07:09:14.610Z,100.00
2022-08-28T07:11:48.693Z,100.00
2022-08-28T07:14:18.549Z,100.00
2022-08-28T07:16:45.976Z,100.00
2022-08-28T07:19:14.002Z,100.00
2022-08-28T07:21:44.454Z,100.00
2022-08-28T07:24:14.747Z,100.00
2022-08-28T07:26:44.324Z,100.00
2022-08-28T07:29:12.000Z,100.00
2022-08-28T07:31:43.519Z,100.00
2022-08-28T07:34:13.800Z,100.00
2022-08-28T07:36:41.844Z,100.00
2022-08-28T07:39:12.166Z,100.00
2022-08-28T07:41:42.803Z,100.00
2022-08-28T07:44:32.307Z,100.00
2022-08-28T07:47:04.474Z,100.00
2022-08-28T07:49:33.998Z,100.00
2022-08-28T07:52:02.175Z,100.00
2022-08-28T07:54:29.434Z,100.00
2022-08-28T07:56:56.595Z,100.00
2022-08-28T07:59:23.880Z,100.00
2022-08-28T08:01:52.231Z,100.00
2022-08-28T08:04:22.677Z,100.00
2022-08-28T08:06:57.567Z,100.00
2022-08-28T08:09:26.304Z,100.00
2022-08-28T08:11:54.971Z,100.00
2022-08-28T08:14:23.271Z,100.00
2022-08-28T08:16:52.505Z,100.00
2022-08-28T08:19:20.474Z,100.00
2022-08-28T08:21:53.261Z,100.00
2022-08-28T08:24:26.257Z,100.00
2022-08-28T08:27:00.245Z,100.00
2022-08-28T08:29:36.019Z,100.00
2022-08-28T08:32:09.846Z,100.00
2022-08-28T08:34:43.236Z,100.00
2022-08-28T08:37:11.662Z,100.00
2022-08-28T08:39:41.639Z,100.00
2022-08-28T08:42:34.636Z,100.00
2022-08-28T08:45:10.333Z,100.00
2022-08-28T08:47:57.712Z,100.00
2022-08-28T08:50:35.854Z,100.00
2022-08-28T08:53:32.018Z,100.00
2022-08-28T08:56:00.127Z,100.00
2022-08-28T08:58:38.341Z,100.00
2022-08-28T09:01:23.474Z,100.00
2022-08-28T09:04:34.526Z,100.00
2022-08-28T09:07:16.043Z,100.00
2022-08-28T09:09:49.370Z,100.00
2022-08-28T09:12:18.968Z,100.00
2022-08-28T09:14:58.393Z,100.00
2022-08-28T09:17:59.794Z,100.00
2022-08-28T09:20:30.256Z,99.93
2022-08-28T09:23:02.122Z,100.00
2022-08-28T09:25:51.686Z,100.00
2022-08-28T09:28:40.803Z,100.00
2022-08-28T09:31:19.952Z,100.00
2022-08-28T09:33:53.319Z,100.00
2022-08-28T09:36:38.691Z,100.00
2022-08-28T09:39:26.091Z,100.00
2022-08-28T09:42:21.023Z,100.00
2022-08-28T09:45:01.497Z,100.00
2022-08-28T09:47:52.611Z,100.00
2022-08-28T09:50:33.887Z,100.00
2022-08-28T09:53:19.357Z,100.00
2022-08-28T09:56:14.335Z,100.00
2022-08-28T09:58:56.264Z,100.00
2022-08-28T10:01:44.861Z,100.00
2022-08-28T10:04:27.923Z,100.00
2022-08-28T10:07:12.227Z,100.00
2022-08-28T10:10:17.076Z,99.43
2022-08-28T10:12:50.741Z,97.44
2022-08-28T10:16:09.771Z,89.96
2022-08-28T10:18:58.141Z,86.53
2022-08-28T10:21:55.270Z,86.53
2022-08-28T10:24:37.786Z,87.31
2022-08-28T10:27:35.991Z,83.52
2022-08-28T10:30:15.200Z,84.11
2022-08-28T10:33:17.968Z,79.73
2022-08-28T10:35:54.383Z,81.13
2022-08-28T10:38:46.250Z,74.46
2022-08-28T10:41:58.882Z,72.19
2022-08-28T10:44:55.450Z,72.95
2022-08-28T10:47:28.161Z,74.59
2022-08-28T10:50:03.156Z,73.15
2022-08-28T10:52:46.167Z,71.66
2022-08-28T10:55:24.168Z,74.86
2022-08-28T10:58:03.383Z,74.10
2022-08-28T11:00:31.607Z,76.58
2022-08-28T11:03:27.018Z,75.28
2022-08-28T11:06:08.287Z,78.85
2022-08-28T11:08:39.501Z,75.01
2022-08-28T11:11:14.964Z,72.15
2022-08-28T11:13:57.784Z,72.89
2022-08-28T11:16:28.246Z,67.71
2022-08-28T11:19:21.121Z,67.15
2022-08-28T11:21:56.984Z,65.30
2022-08-28T11:24:53.529Z,66.42
2022-08-28T11:27:33.295Z,69.44
2022-08-28T11:30:10.841Z,70.59
2022-08-28T11:32:41.430Z,70.79
2022-08-28T11:35:44.283Z,69.17
2022-08-28T11:38:14.161Z,69.55
2022-08-28T11:40:55.051Z,72.56
2022-08-28T11:43:23.527Z,72.44
2022-08-28T11:45:59.617Z,72.02
2022-08-28T11:48:36.265Z,68.90
2022-08-28T11:51:50.257Z,70.61
2022-08-28T11:54:35.376Z,72.39
2022-08-28T11:57:14.008Z,71.90
2022-08-28T11:59:52.760Z,72.58
2022-08-28T12:02:39.042Z,68.94
2022-08-28T12:05:11.014Z,68.71
2022-08-28T12:07:56.273Z,66.60
2022-08-28T12:10:27.539Z,66.44
2022-08-28T12:13:01.420Z,68.54
2022-08-28T12:15:32.284Z,70.15
2022-08-28T12:18:12.628Z,69.60
2022-08-28T12:21:02.772Z,69.50
2022-08-28T12:23:45.178Z,68.84
2022-08-28T12:26:38.685Z,71.88
2022-08-28T12:29:33.306Z,75.39
2022-08-28T12:32:38.009Z,73.45
2022-08-28T12:35:20.680Z,73.37
2022-08-28T12:37:53.802Z,75.79
2022-08-28T12:40:31.223Z,73.34
2022-08-28T12:43:08.954Z,74.22
2022-08-28T12:45:43.224Z,74.40
2022-08-28T12:48:29.379Z,77.02
2022-08-28T12:51:08.045Z,78.08
2022-08-28T12:53:46.185Z,76.21
2022-08-28T12:56:17.778Z,74.06
2022-08-28T12:58:47.097Z,76.19
2022-08-28T13:01:24.239Z,75.13
2022-08-28T13:04:17.656Z,76.34
2022-08-28T13:06:45.131Z,79.58
2022-08-28T13:09:19.104Z,79.89
2022-08-28T13:11:51.985Z,79.52
2022-08-28T13:14:42.961Z,77.45
2022-08-28T13:17:13.512Z,76.14
2022-08-28T13:19:41.399Z,76.94
2022-08-28T13:22:40.983Z,76.93
2022-08-28T13:25:31.170Z,74.93
2022-08-28T13:27:59.303Z,78.83
2022-08-28T13:30:31.360Z,78.55
2022-08-28T13:33:27.351Z,80.76
2022-08-28T13:35:56.229Z,80.96
2022-08-28T13:38:25.300Z,80.24
2022-08-28T13:41:02.221Z,80.06
2022-08-28T13:43:43.774Z,79.56
2022-08-28T13:46:10.790Z,77.90
2022-08-28T13:48:38.266Z,78.19
2022-08-28T13:51:14.246Z,77.36
2022-08-28T13:53:48.131Z,78.20
2022-08-28T13:56:17.730Z,78.01
2022-08-28T13:58:44.948Z,77.37
2022-08-28T14:01:43.862Z,76.10
2022-08-28T14:04:13.065Z,78.16
2022-08-28T14:06:44.076Z,76.18
2022-08-28T14:09:15.354Z,78.61
2022-08-28T14:11:47.526Z,76.51
2022-08-28T14:14:14.653Z,77.94
2022-08-28T14:16:44.871Z,79.32
2022-08-28T14:19:12.798Z,77.88
2022-08-28T14:21:41.200Z,77.09
2022-08-28T14:24:09.017Z,77.66
2022-08-28T14:26:36.714Z,79.87
2022-08-28T14:29:08.539Z,77.71
2022-08-28T14:31:37.029Z,77.54
2022-08-28T14:34:11.787Z,79.99
2022-08-28T14:36:41.282Z,79.45
2022-08-28T14:39:11.692Z,78.48
2022-08-28T14:41:44.167Z,78.14
2022-08-28T14:44:11.264Z,79.46
2022-08-28T14:46:38.850Z,78.24
2022-08-28T14:49:10.712Z,78.85
2022-08-28T14:51:43.705Z,79.58
2022-08-28T14:54:18.953Z,78.58
2022-08-28T14:56:48.033Z,78.19
2022-08-28T14:59:23.981Z,80.99
2022-08-28T15:01:53.938Z,79.04
2022-08-28T15:04:23.883Z,79.28
2022-08-28T15:07:03.322Z,77.52
2022-08-28T15:09:30.474Z,77.34
2022-08-28T15:11:57.846Z,76.16
2022-08-28T15:14:25.789Z,78.36
2022-08-28T15:16:53.582Z,75.70
2022-08-28T15:19:23.463Z,76.88
2022-08-28T15:21:56.585Z,76.19
2022-08-28T15:24:28.558Z,75.27
2022-08-28T15:26:56.959Z,75.73
2022-08-28T15:29:24.604Z,75.90
2022-08-28T15:31:53.160Z,77.55
2022-08-28T15:34:28.154Z,77.59
2022-08-28T15:36:58.255Z,74.68
2022-08-28T15:39:47.283Z,73.11
2022-08-28T15:42:15.323Z,74.62
2022-08-28T15:44:43.024Z,74.73
2022-08-28T15:47:12.567Z,72.69
2022-08-28T15:49:48.557Z,73.57
2022-08-28T15:52:18.813Z,73.72
2022-08-28T15:54:46.653Z,74.45
2022-08-28T15:57:13.950Z,74.08
2022-08-28T15:59:48.610Z,72.30
2022-08-28T16:02:24.085Z,73.09
2022-08-28T16:04:53.777Z,71.88
2022-08-28T16:07:23.036Z,72.56
2022-08-28T16:09:51.210Z,73.22
2022-08-28T16:12:19.167Z,73.76
2022-08-28T16:14:46.960Z,73.28
2022-08-28T16:17:14.221Z,73.18
2022-08-28T16:19:42.865Z,73.04
2022-08-28T16:22:12.296Z,74.34
2022-08-28T16:24:39.848Z,75.18
2022-08-28T16:29:55.127Z,74.37
2022-08-28T16:32:23.350Z,73.97
2022-08-28T16:34:51.061Z,74.07
2022-08-28T16:35:49.439Z,74.38
2022-08-28T16:37:19.603Z,75.35
2022-08-28T16:39:53.701Z,74.49
2022-08-28T16:42:20.868Z,74.04
2022-08-28T16:44:48.031Z,73.84
2022-08-28T16:47:15.346Z,73.69
2022-08-28T16:49:45.572Z,72.50
2022-08-28T16:52:12.712Z,72.78
2022-08-28T16:54:48.496Z,72.41
2022-08-28T16:57:16.952Z,73.22
2022-08-28T16:59:44.945Z,74.29
2022-08-28T17:02:13.578Z,75.40
2022-08-28T17:04:41.414Z,76.05
2022-08-28T17:07:09.233Z,74.69
2022-08-28T17:09:36.391Z,75.92
2022-08-28T17:12:05.595Z,76.18
2022-08-28T17:14:36.140Z,76.63
2022-08-28T17:17:04.680Z,77.57
2022-08-28T17:19:33.092Z,77.92
2022-08-28T17:22:19.003Z,78.61
2022-08-28T17:24:47.768Z,78.59
2022-08-28T17:27:22.382Z,79.33
2022-08-28T17:29:52.874Z,79.41
2022-08-28T17:32:21.099Z,79.38
2022-08-28T17:34:50.923Z,79.98
2022-08-28T17:37:20.780Z,80.61
2022-08-28T17:39:48.878Z,81.02
2022-08-28T17:42:16.181Z,81.20
2022-08-28T17:44:44.589Z,81.37
2022-08-28T17:47:15.819Z,81.22
2022-08-28T17:49:43.006Z,82.46
2022-08-28T17:52:10.053Z,81.94
2022-08-28T17:54:38.596Z,82.25
2022-08-28T17:57:06.039Z,81.93
2022-08-28T17:59:33.316Z,83.14
2022-08-28T18:02:01.441Z,83.38
2022-08-28T18:04:29.038Z,84.92
2022-08-28T18:07:05.719Z,84.38
2022-08-28T18:09:32.910Z,84.92
2022-08-28T18:12:00.162Z,84.57
2022-08-28T18:14:27.323Z,84.55
2022-08-28T18:16:54.399Z,84.81
2022-08-28T18:19:21.482Z,85.58
2022-08-28T18:21:48.696Z,85.42
2022-08-28T18:24:16.760Z,85.60
2022-08-28T18:26:44.785Z,86.45
2022-08-28T18:29:12.397Z,86.73
2022-08-28T18:31:40.477Z,86.98
2022-08-28T18:34:11.248Z,87.90
2022-08-28T18:36:41.493Z,87.99
2022-08-28T18:39:10.202Z,87.54
2022-08-28T18:41:44.560Z,88.99
2022-08-28T18:44:14.551Z,89.15
2022-08-28T18:46:43.891Z,88.73
2022-08-28T18:49:12.030Z,89.44
2022-08-28T18:51:42.235Z,89.49
2022-08-28T18:54:10.744Z,89.67
2022-08-28T18:56:39.894Z,90.21
2022-08-28T18:59:08.375Z,90.77
2022-08-28T19:01:36.159Z,92.15
2022-08-28T19:04:04.123Z,91.44
2022-08-28T19:06:32.109Z,92.48
2022-08-28T19:09:00.244Z,92.54
2022-08-28T19:11:31.438Z,93.09
2022-08-28T19:13:59.669Z,93.76
2022-08-28T19:16:32.271Z,94.88
2022-08-28T19:19:01.155Z,95.30
2022-08-28T19:21:30.502Z,95.70
2022-08-28T19:23:57.679Z,95.99
2022-08-28T19:26:26.165Z,96.38
2022-08-28T19:28:54.491Z,97.45
2022-08-28T19:31:22.848Z,97.72
2022-08-28T19:33:50.754Z,98.09
2022-08-28T19:36:18.668Z,98.76
2022-08-28T19:38:45.984Z,98.83
2022-08-28T19:41:14.833Z,99.64
2022-08-28T19:43:44.193Z,99.95
2022-08-28T19:46:19.547Z,100.00
2022-08-28T19:48:51.243Z,100.00
2022-08-28T19:51:22.782Z,100.00
2022-08-28T19:53:58.905Z,100.00
2022-08-28T19:56:32.403Z,100.00
2022-08-28T19:59:02.824Z,100.00
2022-08-28T20:01:35.243Z,100.00
2022-08-28T20:04:03.543Z,100.00
2022-08-28T20:06:33.170Z,100.00
2022-08-28T20:09:02.192Z,100.00
2022-08-28T20:11:30.632Z,100.00
2022-08-28T20:14:04.452Z,100.00
2022-08-28T20:16:35.986Z,100.00
2022-08-28T20:19:07.814Z,100.00
2022-08-28T20:21:38.631Z,100.00
2022-08-28T20:24:09.670Z,100.00
2022-08-28T20:26:37.104Z,100.00
2022-08-28T20:29:08.704Z,100.00
2022-08-28T20:31:40.355Z,100.00
2022-08-28T20:34:10.724Z,100.00
2022-08-28T20:36:38.736Z,100.00
2022-08-28T20:39:09.173Z,100.00
2022-08-28T20:41:38.787Z,100.00
2022-08-28T20:44:09.325Z,100.00
2022-08-28T20:46:41.259Z,100.00
2022-08-28T20:49:11.693Z,100.00
2022-08-28T20:51:52.965Z,100.00
2022-08-28T20:54:26.585Z,100.00
2022-08-28T20:56:55.577Z,100.00
2022-08-28T20:59:22.793Z,100.00
2022-08-28T21:01:51.769Z,100.00
2022-08-28T21:04:19.502Z,100.00
2022-08-28T21:06:46.736Z,100.00
2022-08-28T21:09:16.654Z,100.00
2022-08-28T21:11:44.847Z,100.00
2022-08-28T21:14:12.738Z,100.00
2022-08-28T21:16:40.869Z,100.00
2022-08-28T21:19:16.779Z,100.00
2022-08-28T21:21:45.718Z,100.00
2022-08-28T21:24:16.289Z,100.00
2022-08-28T21:26:47.235Z,100.00
2022-08-28T21:29:16.271Z,100.00
2022-08-28T21:31:44.937Z,100.00
2022-08-28T21:34:12.500Z,100.00
2022-08-28T21:36:50.035Z,100.00
2022-08-28T21:39:22.408Z,100.00
2022-08-28T21:41:49.833Z,100.00
2022-08-28T21:44:17.726Z,100.00
2022-08-28T21:46:44.906Z,100.00
2022-08-28T21:49:12.072Z,100.00
2022-08-28T21:51:39.617Z,100.00
2022-08-28T21:54:07.148Z,100.00
2022-08-28T21:56:34.246Z,100.00
2022-08-28T21:59:02.115Z,100.00
2022-08-28T22:01:30.729Z,100.00
2022-08-28T22:04:00.260Z,100.00
2022-08-28T22:06:27.427Z,100.00
2022-08-28T22:08:56.548Z,100.00
2022-08-28T22:11:25.468Z,100.00
2022-08-28T22:13:54.985Z,100.00
2022-08-28T22:16:24.809Z,100.00
2022-08-28T22:18:52.314Z,100.00
2022-08-28T22:21:42.643Z,100.00
2022-08-28T22:24:11.826Z,100.00
2022-08-28T22:26:41.068Z,100.00
2022-08-28T22:29:10.290Z,100.00
2022-08-28T22:31:39.668Z,100.00
2022-08-28T22:34:13.399Z,100.00
2022-08-28T22:36:40.502Z,100.00
2022-08-28T22:39:07.653Z,100.00
2022-08-28T22:41:37.632Z,100.00
2022-08-28T22:44:04.833Z,100.00
2022-08-28T22:46:34.219Z,100.00
2022-08-28T22:49:01.362Z,100.00
2022-08-28T22:51:28.423Z,100.00
2022-08-28T22:53:56.229Z,100.00
2022-08-28T22:56:23.209Z,100.00
2022-08-28T22:58:50.444Z,100.00
2022-08-28T23:01:22.863Z,100.00
2022-08-28T23:03:50.715Z,100.00
2022-08-28T23:06:18.439Z,100.00
2022-08-28T23:08:45.526Z,100.00
2022-08-28T23:11:12.619Z,100.00
2022-08-28T23:13:41.050Z,100.00
2022-08-28T23:16:09.594Z,100.00
2022-08-28T23:19:06.401Z,100.00
2022-08-28T23:21:28.279Z,100.00
2022-08-28T23:23:56.360Z,100.00
2022-08-28T23:26:25.535Z,100.00
2022-08-28T23:28:52.992Z,100.00
2022-08-28T23:31:20.230Z,100.00
2022-08-28T23:33:48.844Z,100.00
2022-08-28T23:36:16.191Z,100.00
2022-08-28T23:38:45.464Z,100.00
2022-08-28T23:41:12.648Z,100.00
2022-08-28T23:43:40.867Z,100.00
2022-08-28T23:46:09.911Z,100.00
2022-08-28T23:48:40.991Z,100.00
2022-08-28T23:51:15.165Z,100.00
2022-08-28T23:53:43.846Z,100.00
2022-08-28T23:56:12.848Z,100.00
2022-08-28T23:58:43.220Z,100.00
